createdAt,value
2022-11-23T00:01:47.948Z,90.14
2022-11-23T00:04:18.725Z,90.08
2022-11-23T00:06:50.746Z,90.13
2022-11-23T00:09:23.065Z,89.90
2022-11-23T00:11:55.408Z,90.08
2022-11-23T00:14:27.639Z,90.23
2022-11-23T00:16:58.238Z,90.12
2022-11-23T00:19:30.690Z,90.10
2022-11-23T00:22:03.377Z,89.76
2022-11-23T00:24:35.619Z,89.48
2022-11-23T00:27:06.230Z,89.56
2022-11-23T00:29:38.392Z,89.68
2022-11-23T00:32:11.035Z,89.65
2022-11-23T00:34:41.867Z,89.68
2022-11-23T00:37:14.100Z,89.77
2022-11-23T00:39:46.356Z,89.57
2022-11-23T00:42:18.346Z,89.51
2022-11-23T00:44:50.374Z,89.69
2022-11-23T00:47:20.913Z,89.56
2022-11-23T00:49:53.002Z,89.47
2022-11-23T00:52:25.015Z,89.60
2022-11-23T00:54:55.612Z,88.93
2022-11-23T00:57:27.771Z,88.67
2022-11-23T00:59:58.328Z,88.30
2022-11-23T01:02:31.945Z,88.00
2022-11-23T01:05:06.406Z,87.83
2022-11-23T01:07:38.627Z,87.86
2022-11-23T01:10:09.873Z,87.97
2022-11-23T01:12:41.945Z,88.27
2022-11-23T01:15:14.009Z,88.47
2022-11-23T01:17:46.339Z,88.87
2022-11-23T01:20:19.092Z,89.10
2022-11-23T01:22:52.270Z,89.40
2022-11-23T01:25:24.823Z,89.86
2022-11-23T01:27:57.219Z,90.40
2022-11-23T01:30:29.469Z,90.94
2022-11-23T01:33:01.765Z,90.89
2022-11-23T01:35:32.442Z,91.18
2022-11-23T01:38:04.739Z,91.31
2022-11-23T01:40:44.297Z,91.11
2022-11-23T01:43:19.209Z,90.87
2022-11-23T01:46:00.888Z,90.83
2022-11-23T01:48:38.113Z,90.85
2022-11-23T01:51:14.517Z,91.00
2022-11-23T01:53:49.635Z,91.06
2022-11-23T01:56:26.260Z,90.97
2022-11-23T01:59:01.605Z,90.85
2022-11-23T02:01:34.111Z,90.63
2022-11-23T02:04:08.714Z,90.16
2022-11-23T02:06:42.630Z,90.16
2022-11-23T02:09:15.882Z,89.91
2022-11-23T02:11:47.962Z,89.49
2022-11-23T02:14:23.360Z,89.45
2022-11-23T02:17:01.039Z,89.13
2022-11-23T02:19:40.050Z,89.30
2022-11-23T02:22:18.264Z,89.75
2022-11-23T02:24:54.821Z,90.07
2022-11-23T02:27:30.308Z,90.14
2022-11-23T02:30:03.976Z,90.51
2022-11-23T02:32:37.320Z,90.42
2022-11-23T02:35:10.775Z,90.30
2022-11-23T02:37:44.781Z,90.04
2022-11-23T02:40:24.964Z,89.91
2022-11-23T02:42:57.268Z,89.93
2022-11-23T02:45:35.979Z,90.14
2022-11-23T02:48:08.645Z,90.02
2022-11-23T02:50:42.584Z,89.72
2022-11-23T02:53:13.465Z,89.80
2022-11-23T02:55:45.617Z,89.90
2022-11-23T02:58:16.276Z,89.89
2022-11-23T03:00:48.704Z,90.02
2022-11-23T03:03:22.832Z,90.01
2022-11-23T03:05:53.459Z,90.25
2022-11-23T03:08:25.418Z,90.18
2022-11-23T03:10:58.583Z,90.32
2022-11-23T03:13:30.866Z,90.14
2022-11-23T03:16:03.677Z,90.26
2022-11-23T03:18:36.187Z,90.23
2022-11-23T03:21:09.957Z,89.99
2022-11-23T03:23:43.345Z,90.18
2022-11-23T03:26:17.063Z,90.29
2022-11-23T03:28:56.916Z,90.28
2022-11-23T03:31:29.935Z,90.31
2022-11-23T03:34:01.998Z,90.28
2022-11-23T03:36:35.645Z,90.20
2022-11-23T03:39:08.290Z,90.24
2022-11-23T03:42:03.689Z,90.10
2022-11-23T03:44:38.377Z,90.34
2022-11-23T03:47:11.259Z,90.41
2022-11-23T03:49:43.616Z,90.46
2022-11-23T03:52:15.928Z,90.34
2022-11-23T03:54:48.590Z,90.53
2022-11-23T03:57:21.423Z,90.57
2022-11-23T03:59:53.620Z,90.60
2022-11-23T04:02:24.788Z,90.47
2022-11-23T04:05:08.382Z,90.08
2022-11-23T04:08:15.838Z,89.80
2022-11-23T04:10:48.605Z,89.92
2022-11-23T04:13:24.400Z,90.13
2022-11-23T04:15:55.095Z,90.19
2022-11-23T04:18:27.199Z,90.34
2022-11-23T04:20:57.994Z,90.45
2022-11-23T04:23:30.363Z,90.92
2022-11-23T04:26:03.015Z,90.99
2022-11-23T04:28:33.629Z,90.63
2022-11-23T04:31:05.885Z,90.38
2022-11-23T04:33:45.407Z,90.09
2022-11-23T04:36:18.760Z,89.96
2022-11-23T04:38:49.306Z,90.09
2022-11-23T04:41:23.296Z,90.06
2022-11-23T04:43:55.529Z,90.25
2022-11-23T04:46:28.229Z,90.32
2022-11-23T04:49:00.384Z,90.20
2022-11-23T04:51:32.480Z,90.31
2022-11-23T04:54:05.295Z,90.59
2022-11-23T04:56:43.914Z,90.77
2022-11-23T04:59:16.088Z,90.81
2022-11-23T05:01:46.591Z,91.26
2022-11-23T05:04:42.889Z,91.80
2022-11-23T05:07:16.174Z,92.08
2022-11-23T05:09:51.228Z,92.27
2022-11-23T05:12:26.155Z,92.44
2022-11-23T05:14:58.273Z,92.27
2022-11-23T05:17:35.578Z,91.99
2022-11-23T05:20:09.526Z,91.95
2022-11-23T05:22:43.942Z,91.86
2022-11-23T05:25:18.387Z,91.93
2022-11-23T05:27:51.336Z,92.04
2022-11-23T05:30:23.560Z,91.78
2022-11-23T05:33:00.913Z,91.75
2022-11-23T05:35:35.793Z,91.77
2022-11-23T05:38:08.675Z,91.83
2022-11-23T05:40:40.966Z,91.82
2022-11-23T05:43:13.517Z,91.89
2022-11-23T05:45:47.780Z,92.02
2022-11-23T05:48:21.228Z,92.12
2022-11-23T05:51:04.868Z,92.10
2022-11-23T05:53:40.627Z,92.25
2022-11-23T05:56:18.762Z,92.19
2022-11-23T05:59:01.671Z,92.30
2022-11-23T06:01:34.077Z,92.05
2022-11-23T06:04:07.674Z,91.82
2022-11-23T06:06:46.974Z,91.92
2022-11-23T06:09:19.491Z,92.01
2022-11-23T06:11:51.905Z,91.61
2022-11-23T06:14:25.004Z,91.60
2022-11-23T06:16:57.391Z,91.77
2022-11-23T06:19:52.651Z,91.71
2022-11-23T06:22:24.782Z,91.75
2022-11-23T06:25:10.194Z,91.71
2022-11-23T06:27:45.276Z,91.81
2022-11-23T06:30:24.142Z,91.81
2022-11-23T06:32:56.415Z,91.76
2022-11-23T06:35:29.077Z,91.71
2022-11-23T06:38:01.287Z,91.76
2022-11-23T06:40:33.715Z,91.51
2022-11-23T06:43:06.087Z,91.50
2022-11-23T06:45:45.744Z,91.33
2022-11-23T06:48:19.924Z,91.27
2022-11-23T06:50:52.938Z,91.14
2022-11-23T06:53:26.640Z,91.22
2022-11-23T06:56:03.594Z,91.26
2022-11-23T06:58:36.882Z,91.08
2022-11-23T07:01:12.449Z,90.94
2022-11-23T07:03:53.055Z,91.07
2022-11-23T07:06:31.908Z,91.21
2022-11-23T07:09:06.617Z,91.02
2022-11-23T07:11:49.730Z,90.89
2022-11-23T07:14:20.370Z,90.93
2022-11-23T07:16:53.957Z,90.65
2022-11-23T07:19:24.532Z,90.66
2022-11-23T07:21:57.075Z,90.76
2022-11-23T07:24:27.600Z,90.84
2022-11-23T07:26:59.935Z,90.88
2022-11-23T07:29:32.386Z,91.02
2022-11-23T07:32:04.823Z,90.97
2022-11-23T07:34:35.502Z,90.97
2022-11-23T07:37:08.284Z,91.07
2022-11-23T07:39:58.191Z,90.95
2022-11-23T07:42:38.248Z,90.57
2022-11-23T07:45:14.736Z,90.63
2022-11-23T07:47:58.445Z,90.20
2022-11-23T07:50:31.234Z,89.78
2022-11-23T07:53:05.168Z,89.59
2022-11-23T07:55:37.892Z,89.85
2022-11-23T07:58:10.313Z,90.35
2022-11-23T08:00:42.409Z,90.57
2022-11-23T08:03:31.530Z,90.63
2022-11-23T08:06:04.035Z,90.47
2022-11-23T08:08:36.700Z,90.31
2022-11-23T08:11:10.350Z,90.59
2022-11-23T08:13:42.751Z,90.56
2022-11-23T08:16:15.003Z,90.13
2022-11-23T08:18:47.088Z,89.88
2022-11-23T08:21:17.636Z,89.95
2022-11-23T08:23:49.712Z,90.23
2022-11-23T08:26:20.318Z,90.12
2022-11-23T08:28:52.551Z,89.86
2022-11-23T08:31:23.247Z,89.72
2022-11-23T08:33:58.925Z,89.74
2022-11-23T08:36:35.507Z,89.60
2022-11-23T08:39:08.906Z,89.37
2022-11-23T08:41:41.188Z,89.20
2022-11-23T08:44:12.545Z,89.22
2022-11-23T08:46:44.782Z,88.78
2022-11-23T08:49:15.411Z,88.65
2022-11-23T08:51:50.281Z,88.48
2022-11-23T08:54:24.349Z,88.29
2022-11-23T08:56:56.743Z,88.04
2022-11-23T08:59:29.016Z,88.47
2022-11-23T09:01:59.649Z,88.10
2022-11-23T09:04:32.237Z,87.56
2022-11-23T09:07:06.004Z,87.59
2022-11-23T09:09:38.419Z,87.35
2022-11-23T09:12:11.082Z,86.22
2022-11-23T09:14:43.450Z,85.63
2022-11-23T09:17:14.092Z,85.98
2022-11-23T09:19:46.327Z,85.99
2022-11-23T09:22:16.955Z,85.78
2022-11-23T09:24:49.400Z,85.44
2022-11-23T09:27:22.145Z,84.98
2022-11-23T09:29:54.377Z,84.80
2022-11-23T09:32:26.770Z,83.86
2022-11-23T09:34:57.314Z,83.00
2022-11-23T09:37:29.586Z,81.76
2022-11-23T09:40:01.828Z,82.00
2022-11-23T09:42:58.101Z,81.00
2022-11-23T09:45:36.183Z,80.13
2022-11-23T09:48:29.909Z,79.78
2022-11-23T09:51:06.583Z,79.64
2022-11-23T09:53:46.185Z,79.07
2022-11-23T09:56:23.863Z,79.43
2022-11-23T09:58:58.315Z,79.26
2022-11-23T10:01:31.364Z,78.79
2022-11-23T10:04:05.224Z,78.48
2022-11-23T10:06:41.829Z,78.17
2022-11-23T10:09:31.282Z,77.93
2022-11-23T10:12:37.293Z,77.11
2022-11-23T10:15:19.178Z,76.45
2022-11-23T10:18:10.923Z,76.05
2022-11-23T10:21:07.489Z,76.06
2022-11-23T10:23:54.616Z,75.95
2022-11-23T10:26:33.750Z,76.21
2022-11-23T10:29:15.495Z,75.82
2022-11-23T10:31:55.503Z,75.35
2022-11-23T10:34:50.172Z,75.20
2022-11-23T10:37:22.389Z,75.40
2022-11-23T10:39:54.649Z,75.72
2022-11-23T10:42:27.072Z,76.11
2022-11-23T10:44:59.934Z,76.33
2022-11-23T10:47:41.333Z,76.47
2022-11-23T10:50:33.679Z,76.85
2022-11-23T10:53:23.638Z,76.82
2022-11-23T10:55:59.153Z,76.44
2022-11-23T10:58:35.375Z,76.60
2022-11-23T11:01:13.480Z,77.16
2022-11-23T11:03:46.011Z,77.56
2022-11-23T11:06:25.924Z,77.67
2022-11-23T11:09:03.169Z,77.29
2022-11-23T11:11:39.991Z,77.41
2022-11-23T11:14:19.710Z,77.60
2022-11-23T11:16:54.073Z,77.08
2022-11-23T11:19:30.134Z,77.08
2022-11-23T11:22:03.829Z,77.21
2022-11-23T11:24:41.336Z,77.61
2022-11-23T11:27:18.379Z,77.93
2022-11-23T11:29:52.792Z,78.18
2022-11-23T11:32:32.586Z,78.23
2022-11-23T11:35:20.330Z,78.32
2022-11-23T11:37:57.178Z,78.57
2022-11-23T11:40:34.639Z,78.72
2022-11-23T11:43:11.944Z,78.57
2022-11-23T11:46:13.221Z,78.42
2022-11-23T11:48:41.619Z,78.61
2022-11-23T11:51:22.534Z,78.64
2022-11-23T11:54:00.958Z,78.48
2022-11-23T11:56:37.652Z,78.47
2022-11-23T11:59:19.261Z,78.18
2022-11-23T12:01:58.618Z,78.33
2022-11-23T12:04:41.184Z,78.30
2022-11-23T12:07:14.687Z,78.67
2022-11-23T12:09:51.691Z,78.72
2022-11-23T12:12:29.578Z,79.08
2022-11-23T12:15:02.017Z,78.78
2022-11-23T12:17:45.012Z,78.49
2022-11-23T12:20:25.985Z,78.57
2022-11-23T12:23:12.792Z,78.86
2022-11-23T12:25:51.222Z,78.60
2022-11-23T12:28:42.552Z,78.41
2022-11-23T12:31:24.859Z,78.81
2022-11-23T12:34:02.309Z,78.86
2022-11-23T12:37:03.752Z,78.82
2022-11-23T12:40:12.834Z,78.75
2022-11-23T12:42:48.358Z,78.55
2022-11-23T12:45:37.564Z,78.69
2022-11-23T12:48:28.395Z,78.88
2022-11-23T12:51:08.583Z,78.63
2022-11-23T12:53:50.939Z,78.65
2022-11-23T12:56:26.083Z,78.18
2022-11-23T12:58:59.450Z,78.37
2022-11-23T13:04:57.232Z,78.57
2022-11-23T13:08:11.481Z,78.50
2022-11-23T13:11:00.562Z,78.41
2022-11-23T13:13:51.780Z,78.27
2022-11-23T13:16:37.072Z,78.25
2022-11-23T13:19:35.613Z,78.04
2022-11-23T13:22:13.322Z,77.90
2022-11-23T13:25:07.023Z,77.83
2022-11-23T13:27:59.509Z,77.82
2022-11-23T13:31:13.913Z,76.55
2022-11-23T13:33:38.458Z,76.95
2022-11-23T13:36:18.469Z,76.70
2022-11-23T13:38:52.230Z,76.07
2022-11-23T13:42:01.440Z,75.73
2022-11-23T13:44:34.729Z,75.84
2022-11-23T13:47:21.889Z,75.62
2022-11-23T13:50:08.868Z,75.37
2022-11-23T13:52:52.075Z,75.58
2022-11-23T13:55:30.481Z,75.38
2022-11-23T13:58:35.408Z,75.29
2022-11-23T14:01:08.261Z,75.56
2022-11-23T14:03:57.302Z,75.78
2022-11-23T14:06:44.651Z,76.07
2022-11-23T14:09:25.352Z,76.46
2022-11-23T14:12:07.972Z,76.54
2022-11-23T14:14:51.040Z,76.60
2022-11-23T14:17:51.461Z,76.50
2022-11-23T14:20:34.494Z,76.28
2022-11-23T14:23:29.325Z,76.13
2022-11-23T14:26:13.751Z,76.18
2022-11-23T14:29:03.524Z,76.38
2022-11-23T14:31:44.909Z,76.60
2022-11-23T14:34:27.825Z,76.81
2022-11-23T14:37:05.764Z,77.00
2022-11-23T14:40:03.973Z,77.03
2022-11-23T14:42:40.983Z,77.23
2022-11-23T14:45:17.361Z,77.44
2022-11-23T14:47:50.400Z,77.67
2022-11-23T14:50:28.439Z,77.73
2022-11-23T14:53:01.954Z,77.80
2022-11-23T14:55:34.091Z,77.86
2022-11-23T14:58:06.487Z,77.97
2022-11-23T15:00:41.207Z,78.11
2022-11-23T15:03:48.799Z,78.28
2022-11-23T15:06:15.574Z,78.44
2022-11-23T15:08:53.645Z,78.67
2022-11-23T15:11:29.699Z,79.04
2022-11-23T15:14:04.958Z,79.35
2022-11-23T15:16:43.030Z,79.67
2022-11-23T15:19:28.273Z,79.97
2022-11-23T15:22:01.121Z,80.45
2022-11-23T15:24:33.598Z,80.74
2022-11-23T15:27:12.561Z,80.99
2022-11-23T15:29:55.237Z,81.14
2022-11-23T15:32:33.279Z,81.18
2022-11-23T15:35:13.109Z,81.12
2022-11-23T15:37:47.375Z,81.40
2022-11-23T15:40:20.873Z,81.58
2022-11-23T15:42:53.567Z,81.72
2022-11-23T15:46:01.395Z,81.93
2022-11-23T15:48:37.209Z,82.03
2022-11-23T15:51:23.805Z,82.12
2022-11-23T15:53:56.412Z,82.03
2022-11-23T15:56:32.889Z,82.01
2022-11-23T15:59:15.060Z,82.35
2022-11-23T16:01:47.500Z,82.54
2022-11-23T16:04:29.711Z,82.79
2022-11-23T16:07:09.656Z,83.04
2022-11-23T16:09:53.095Z,83.18
2022-11-23T16:12:31.357Z,83.32
2022-11-23T16:15:38.772Z,83.22
2022-11-23T16:18:23.824Z,83.09
2022-11-23T16:21:00.329Z,83.03
2022-11-23T16:23:44.391Z,83.03
2022-11-23T16:26:17.410Z,82.81
2022-11-23T16:28:55.151Z,82.87
2022-11-23T16:31:36.879Z,83.18
2022-11-23T16:34:17.484Z,83.46
2022-11-23T16:36:49.803Z,83.56
2022-11-23T16:39:20.351Z,83.73
2022-11-23T16:41:52.722Z,84.01
2022-11-23T16:44:24.985Z,84.09
2022-11-23T16:46:57.057Z,84.02
2022-11-23T16:49:27.773Z,84.00
2022-11-23T16:52:00.066Z,84.20
2022-11-23T16:54:32.229Z,84.20
2022-11-23T16:57:04.718Z,84.18
2022-11-23T16:59:36.898Z,84.18
2022-11-23T17:02:13.359Z,84.25
2022-11-23T17:04:46.228Z,84.31
2022-11-23T17:07:18.328Z,84.36
2022-11-23T17:09:48.891Z,84.39
2022-11-23T17:12:22.524Z,84.65
2022-11-23T17:14:54.752Z,84.78
2022-11-23T17:17:25.235Z,84.92
2022-11-23T17:20:02.502Z,85.05
2022-11-23T17:22:36.159Z,85.08
2022-11-23T17:25:14.455Z,85.13
2022-11-23T17:27:47.547Z,85.21
2022-11-23T17:30:23.124Z,85.28
2022-11-23T17:32:55.661Z,85.41
2022-11-23T17:35:28.264Z,85.55
2022-11-23T17:38:00.627Z,85.69
2022-11-23T17:40:32.919Z,85.65
2022-11-23T17:43:04.962Z,85.71
2022-11-23T17:45:37.337Z,85.86
2022-11-23T17:48:12.744Z,85.83
2022-11-23T17:50:44.956Z,85.88
2022-11-23T17:53:15.781Z,85.89
2022-11-23T17:55:48.705Z,86.00
2022-11-23T17:58:20.823Z,86.08
2022-11-23T18:00:51.463Z,86.36
2022-11-23T18:03:23.848Z,86.59
2022-11-23T18:05:56.192Z,86.69
2022-11-23T18:08:26.739Z,86.96
2022-11-23T18:10:59.689Z,87.12
2022-11-23T18:13:31.846Z,87.21
2022-11-23T18:16:04.304Z,87.29
2022-11-23T18:18:36.928Z,87.33
2022-11-23T18:21:10.927Z,87.57
2022-11-23T18:23:43.620Z,87.61
2022-11-23T18:26:21.159Z,87.62
2022-11-23T18:28:53.284Z,87.70
2022-11-23T18:31:25.479Z,87.78
2022-11-23T18:33:56.170Z,87.60
2022-11-23T18:36:28.344Z,87.31
2022-11-23T18:39:02.033Z,87.52
2022-11-23T18:41:34.443Z,87.42
2022-11-23T18:44:05.243Z,87.53
2022-11-23T18:46:37.810Z,87.58
2022-11-23T18:49:10.334Z,87.58
2022-11-23T18:51:42.622Z,87.42
2022-11-23T18:54:14.849Z,87.28
2022-11-23T18:56:45.530Z,87.36
2022-11-23T18:59:42.121Z,87.24
2022-11-23T19:02:11.641Z,87.19
2022-11-23T19:04:44.251Z,87.10
2022-11-23T19:07:23.662Z,87.29
2022-11-23T19:09:59.389Z,87.34
2022-11-23T19:12:32.209Z,87.52
2022-11-23T19:15:05.455Z,87.57
2022-11-23T19:17:38.445Z,87.56
2022-11-23T19:20:12.460Z,87.42
2022-11-23T19:22:44.860Z,87.58
2022-11-23T19:25:18.021Z,87.64
2022-11-23T19:27:51.571Z,87.56
2022-11-23T19:30:23.746Z,87.55
2022-11-23T19:32:55.871Z,87.42
2022-11-23T19:35:28.203Z,87.47
2022-11-23T19:37:59.425Z,87.50
2022-11-23T19:40:31.553Z,87.55
2022-11-23T19:43:03.718Z,87.44
2022-11-23T19:45:35.899Z,87.39
2022-11-23T19:48:08.728Z,87.34
2022-11-23T19:50:41.240Z,87.26
2022-11-23T19:53:14.088Z,87.27
2022-11-23T19:55:47.002Z,87.29
2022-11-23T19:58:19.559Z,87.10
2022-11-23T20:00:52.111Z,86.78
2022-11-23T20:03:25.186Z,86.73
2022-11-23T20:06:00.279Z,86.91
2022-11-23T20:08:32.945Z,86.61
2022-11-23T20:11:12.976Z,86.30
2022-11-23T20:13:46.423Z,86.25
2022-11-23T20:16:20.837Z,86.49
2022-11-23T20:18:58.974Z,86.37
2022-11-23T20:21:33.007Z,86.33
2022-11-23T20:24:07.785Z,86.14
2022-11-23T20:26:41.285Z,86.12
2022-11-23T20:29:14.895Z,86.03
2022-11-23T20:31:47.144Z,85.89
2022-11-23T20:34:22.003Z,85.86
2022-11-23T20:36:56.574Z,85.57
2022-11-23T20:39:28.787Z,85.64
2022-11-23T20:42:01.883Z,85.35
2022-11-23T20:44:34.480Z,85.44
2022-11-23T20:47:06.594Z,85.48
2022-11-23T20:49:39.108Z,85.26
2022-11-23T20:52:11.346Z,85.32
2022-11-23T20:54:42.101Z,85.50
2022-11-23T20:57:14.511Z,85.34
2022-11-23T20:59:46.833Z,85.17
2022-11-23T21:02:19.218Z,85.02
2022-11-23T21:04:49.736Z,85.05
2022-11-23T21:07:22.514Z,85.20
2022-11-23T21:09:56.527Z,85.28
2022-11-23T21:12:50.393Z,85.20
2022-11-23T21:15:22.761Z,85.14
2022-11-23T21:17:53.372Z,85.20
2022-11-23T21:20:26.665Z,85.31
2022-11-23T21:22:59.286Z,85.41
2022-11-23T21:25:31.589Z,85.45
2022-11-23T21:28:03.455Z,85.42
2022-11-23T21:30:36.595Z,85.42
2022-11-23T21:33:09.279Z,85.38
2022-11-23T21:35:41.453Z,85.22
2022-11-23T21:38:14.398Z,84.96
2022-11-23T21:40:46.459Z,84.97
2022-11-23T21:43:17.034Z,85.04
2022-11-23T21:45:49.186Z,84.91
2022-11-23T21:48:21.291Z,85.08
2022-11-23T21:51:01.649Z,85.23
2022-11-23T21:53:35.240Z,85.08
2022-11-23T21:56:09.555Z,84.87
2022-11-23T21:58:42.258Z,84.67
2022-11-23T22:01:18.667Z,84.46
2022-11-23T22:03:52.512Z,84.41
2022-11-23T22:06:25.416Z,84.43
2022-11-23T22:08:59.992Z,84.53
2022-11-23T22:11:34.224Z,84.29
2022-11-23T22:14:08.464Z,84.16
2022-11-23T22:16:42.115Z,83.87
2022-11-23T22:19:16.338Z,83.88
2022-11-23T22:21:49.289Z,83.83
2022-11-23T22:24:22.749Z,83.77
2022-11-23T22:26:55.012Z,83.78
2022-11-23T22:29:27.209Z,83.75
2022-11-23T22:31:57.974Z,83.76
2022-11-23T22:34:33.658Z,83.84
2022-11-23T22:37:10.560Z,83.79
2022-11-23T22:39:43.367Z,83.85
2022-11-23T22:42:15.779Z,83.96
2022-11-23T22:44:48.048Z,84.00
2022-11-23T22:47:18.853Z,84.17
2022-11-23T22:49:51.138Z,84.30
2022-11-23T22:52:23.439Z,84.18
2022-11-23T22:54:54.051Z,84.12
2022-11-23T22:57:26.779Z,84.19
2022-11-23T22:59:59.242Z,84.15
2022-11-23T23:02:31.784Z,84.12
2022-11-23T23:05:07.256Z,84.11
2022-11-23T23:07:39.603Z,84.17
2022-11-23T23:10:12.718Z,84.19
2022-11-23T23:12:44.887Z,84.15
2022-11-23T23:15:15.447Z,83.97
2022-11-23T23:17:47.762Z,84.03
2022-11-23T23:20:18.596Z,84.15
2022-11-23T23:22:50.822Z,84.19
2022-11-23T23:25:23.108Z,83.91
2022-11-23T23:27:53.688Z,84.06
2022-11-23T23:30:26.228Z,84.11
2022-11-23T23:33:00.213Z,83.94
2022-11-23T23:35:32.428Z,83.91
2022-11-23T23:38:04.682Z,83.86
2022-11-23T23:40:36.817Z,83.57
2022-11-23T23:43:09.269Z,83.79
2022-11-23T23:45:39.830Z,83.76
2022-11-23T23:48:12.272Z,83.64
2022-11-23T23:50:44.484Z,83.63
2022-11-23T23:53:15.249Z,83.42
2022-11-23T23:55:58.470Z,83.55
2022-11-23T23:58:31.964Z,83.45
